sensor_id;sensor_type;location;lat;lon;timestamp;pressure;altitude;pressure_sealevel;temperature;humidity
7966;BME280;4028;43.272;26.932;2023-05-12T00:01:51;99684.03;;;9.10;100.00
7966;BME280;4028;43.272;26.932;2023-05-12T00:04:17;99679.72;;;9.09;100.00
7966;BME280;4028;43.272;26.932;2023-05-12T00:06:42;99675.88;;;9.02;100.00
7966;BME280;4028;43.272;26.932;2023-05-12T00:09:08;99682.84;;;9.03;100.00
7966;BME280;4028;43.272;26.932;2023-05-12T00:11:35;99689.19;;;9.00;100.00
7966;BME280;4028;43.272;26.932;2023-05-12T00:14:01;99683.81;;;9.02;100.00
7966;BME280;4028;43.272;26.932;2023-05-12T00:16:27;99683.56;;;8.94;100.00
7966;BME280;4028;43.272;26.932;2023-05-12T00:18:52;99690.28;;;8.98;100.00
7966;BME280;4028;43.272;26.932;2023-05-12T00:21:18;99688.59;;;8.97;100.00
7966;BME280;4028;43.272;26.932;2023-05-12T00:23:43;99669.78;;;9.01;100.00
7966;BME280;4028;43.272;26.932;2023-05-12T00:26:09;99679.00;;;9.07;100.00
7966;BME280;4028;43.272;26.932;2023-05-12T00:28:34;99675.03;;;9.01;100.00
7966;BME280;4028;43.272;26.932;2023-05-12T00:31:03;99687.63;;;8.98;100.00
7966;BME280;4028;43.272;26.932;2023-05-12T00:33:29;99680.06;;;8.93;100.00
7966;BME280;4028;43.272;26.932;2023-05-12T00:35:55;99685.00;;;8.98;100.00
7966;BME280;4028;43.272;26.932;2023-05-12T00:38:20;99671.09;;;8.96;100.00
7966;BME280;4028;43.272;26.932;2023-05-12T00:40:46;99685.72;;;8.89;100.00
7966;BME280;4028;43.272;26.932;2023-05-12T00:43:11;99685.22;;;8.95;100.00
7966;BME280;4028;43.272;26.932;2023-05-12T00:45:37;99681.28;;;8.89;100.00
7966;BME280;4028;43.272;26.932;2023-05-12T00:48:04;99682.47;;;8.85;100.00
7966;BME280;4028;43.272;26.932;2023-05-12T00:50:30;99669.75;;;8.79;100.00
7966;BME280;4028;43.272;26.932;2023-05-12T00:52:57;99685.00;;;8.87;100.00
7966;BME280;4028;43.272;26.932;2023-05-12T00:55:24;99673.97;;;8.81;100.00
7966;BME280;4028;43.272;26.932;2023-05-12T00:57:49;99683.81;;;8.91;100.00
7966;BME280;4028;43.272;26.932;2023-05-12T01:00:15;99685.09;;;8.85;100.00
7966;BME280;4028;43.272;26.932;2023-05-12T01:02:40;99689.06;;;8.79;100.00
7966;BME280;4028;43.272;26.932;2023-05-12T01:05:07;99695.91;;;8.82;100.00
7966;BME280;4028;43.272;26.932;2023-05-12T01:07:34;99687.38;;;8.78;100.00
7966;BME280;4028;43.272;26.932;2023-05-12T01:10:00;99666.06;;;8.70;100.00
7966;BME280;4028;43.272;26.932;2023-05-12T01:12:26;99687.16;;;8.70;100.00
7966;BME280;4028;43.272;26.932;2023-05-12T01:14:55;99682.81;;;8.69;100.00
7966;BME280;4028;43.272;26.932;2023-05-12T01:17:27;99681.28;;;8.67;100.00
7966;BME280;4028;43.272;26.932;2023-05-12T01:19:59;99686.19;;;8.60;100.00
7966;BME280;4028;43.272;26.932;2023-05-12T01:22:28;99685.44;;;8.58;100.00
7966;BME280;4028;43.272;26.932;2023-05-12T01:25:00;99681.75;;;8.61;100.00
7966;BME280;4028;43.272;26.932;2023-05-12T01:27:28;99676.47;;;8.61;100.00
7966;BME280;4028;43.272;26.932;2023-05-12T01:29:56;99681.88;;;8.70;100.00
7966;BME280;4028;43.272;26.932;2023-05-12T01:32:22;99677.78;;;8.66;100.00
7966;BME280;4028;43.272;26.932;2023-05-12T01:34:48;99681.28;;;8.67;100.00
7966;BME280;4028;43.272;26.932;2023-05-12T01:37:15;99687.75;;;8.85;100.00
7966;BME280;4028;43.272;26.932;2023-05-12T01:39:40;99684.03;;;8.76;100.00
7966;BME280;4028;43.272;26.932;2023-05-12T01:42:06;99685.50;;;8.80;100.00
7966;BME280;4028;43.272;26.932;2023-05-12T01:44:31;99642.06;;;8.51;100.00
7966;BME280;4028;43.272;26.932;2023-05-12T01:46:57;99667.47;;;8.63;100.00
7966;BME280;4028;43.272;26.932;2023-05-12T01:49:22;99683.91;;;8.67;100.00
7966;BME280;4028;43.272;26.932;2023-05-12T01:51:48;99670.00;;;8.76;100.00
7966;BME280;4028;43.272;26.932;2023-05-12T01:54:13;99675.66;;;8.71;100.00
7966;BME280;4028;43.272;26.932;2023-05-12T01:56:39;99667.81;;;8.70;100.00
7966;BME280;4028;43.272;26.932;2023-05-12T01:59:05;99673.47;;;8.65;100.00
7966;BME280;4028;43.272;26.932;2023-05-12T02:01:31;99669.41;;;8.72;100.00
7966;BME280;4028;43.272;26.932;2023-05-12T02:03:57;99670.25;;;8.73;100.00
7966;BME280;4028;43.272;26.932;2023-05-12T02:06:23;99674.81;;;8.71;100.00
7966;BME280;4028;43.272;26.932;2023-05-12T02:08:50;99672.03;;;8.61;100.00
7966;BME280;4028;43.272;26.932;2023-05-12T02:11:15;99673.47;;;8.65;100.00
7966;BME280;4028;43.272;26.932;2023-05-12T02:13:41;99666.16;;;8.57;100.00
7966;BME280;4028;43.272;26.932;2023-05-12T02:16:10;99669.97;;;8.53;100.00
7966;BME280;4028;43.272;26.932;2023-05-12T02:18:36;99674.19;;;8.45;100.00
7966;BME280;4028;43.272;26.932;2023-05-12T02:21:02;99671.06;;;8.51;100.00
7966;BME280;4028;43.272;26.932;2023-05-12T02:23:27;99674.66;;;8.50;100.00
7966;BME280;4028;43.272;26.932;2023-05-12T02:25:53;99673.78;;;8.49;100.00
7966;BME280;4028;43.272;26.932;2023-05-12T02:28:18;99670.38;;;8.60;100.00
7966;BME280;4028;43.272;26.932;2023-05-12T02:30:45;99672.97;;;8.49;100.00
7966;BME280;4028;43.272;26.932;2023-05-12T02:33:13;99655.72;;;8.45;100.00
7966;BME280;4028;43.272;26.932;2023-05-12T02:35:38;99660.03;;;8.46;100.00
7966;BME280;4028;43.272;26.932;2023-05-12T02:38:04;99656.31;;;8.48;100.00
7966;BME280;4028;43.272;26.932;2023-05-12T02:40:29;99665.03;;;8.49;100.00
7966;BME280;4028;43.272;26.932;2023-05-12T02:42:55;99666.84;;;8.59;100.00
7966;BME280;4028;43.272;26.932;2023-05-12T02:45:20;99671.78;;;8.53;100.00
7966;BME280;4028;43.272;26.932;2023-05-12T02:47:46;99669.38;;;8.50;100.00
7966;BME280;4028;43.272;26.932;2023-05-12T02:50:12;99670.09;;;8.41;100.00
7966;BME280;4028;43.272;26.932;2023-05-12T02:52:38;99669.56;;;8.36;100.00
7966;BME280;4028;43.272;26.932;2023-05-12T02:55:04;99678.78;;;8.30;100.00
7966;BME280;4028;43.272;26.932;2023-05-12T02:57:29;99663.41;;;8.24;100.00
7966;BME280;4028;43.272;26.932;2023-05-12T03:00:05;99680.84;;;8.38;100.00
7966;BME280;4028;43.272;26.932;2023-05-12T03:02:40;99666.00;;;8.37;100.00
7966;BME280;4028;43.272;26.932;2023-05-12T03:05:06;99680.16;;;8.47;100.00
7966;BME280;4028;43.272;26.932;2023-05-12T03:07:33;99675.72;;;8.36;100.00
7966;BME280;4028;43.272;26.932;2023-05-12T03:09:59;99667.91;;;8.34;100.00
7966;BME280;4028;43.272;26.932;2023-05-12T03:12:25;99678.50;;;8.46;100.00
7966;BME280;4028;43.272;26.932;2023-05-12T03:14:53;99685.44;;;8.47;100.00
7966;BME280;4028;43.272;26.932;2023-05-12T03:17:18;99682.09;;;8.45;100.00
7966;BME280;4028;43.272;26.932;2023-05-12T03:19:44;99685.44;;;8.47;100.00
7966;BME280;4028;43.272;26.932;2023-05-12T03:22:09;99682.09;;;8.56;100.00
7966;BME280;4028;43.272;26.932;2023-05-12T03:24:35;99675.09;;;8.44;100.00
7966;BME280;4028;43.272;26.932;2023-05-12T03:27:00;99684.88;;;8.66;100.00
7966;BME280;4028;43.272;26.932;2023-05-12T03:29:26;99687.75;;;8.63;100.00
7966;BME280;4028;43.272;26.932;2023-05-12T03:31:52;99685.31;;;8.59;100.00
7966;BME280;4028;43.272;26.932;2023-05-12T03:34:17;99693.72;;;8.65;100.00
7966;BME280;4028;43.272;26.932;2023-05-12T03:36:43;99693.63;;;8.66;100.00
7966;BME280;4028;43.272;26.932;2023-05-12T03:39:09;99694.34;;;8.68;100.00
7966;BME280;4028;43.272;26.932;2023-05-12T03:41:35;99695.16;;;8.69;100.00
7966;BME280;4028;43.272;26.932;2023-05-12T03:44:01;99683.91;;;8.67;100.00
7966;BME280;4028;43.272;26.932;2023-05-12T03:46:27;99694.59;;;8.76;100.00
7966;BME280;4028;43.272;26.932;2023-05-12T03:48:52;99703.00;;;8.93;100.00
7966;BME280;4028;43.272;26.932;2023-05-12T03:51:18;99698.69;;;8.92;100.00
7966;BME280;4028;43.272;26.932;2023-05-12T03:53:43;99679.00;;;8.84;100.00
7966;BME280;4028;43.272;26.932;2023-05-12T03:56:12;99703.72;;;9.06;100.00
7966;BME280;4028;43.272;26.932;2023-05-12T03:58:38;99702.63;;;9.08;100.00
7966;BME280;4028;43.272;26.932;2023-05-12T04:01:04;99705.88;;;9.23;100.00
7966;BME280;4028;43.272;26.932;2023-05-12T04:03:29;99703.69;;;9.28;100.00
7966;BME280;4028;43.272;26.932;2023-05-12T04:06:01;99704.03;;;9.35;100.00
7966;BME280;4028;43.272;26.932;2023-05-12T04:08:28;99707.38;;;9.48;100.00
7966;BME280;4028;43.272;26.932;2023-05-12T04:10:54;99714.78;;;9.66;100.00
7966;BME280;4028;43.272;26.932;2023-05-12T04:13:20;99703.63;;;9.62;100.00
7966;BME280;4028;43.272;26.932;2023-05-12T04:15:46;99722.56;;;9.78;100.00
7966;BME280;4028;43.272;26.932;2023-05-12T04:18:11;99716.50;;;9.99;100.00
7966;BME280;4028;43.272;26.932;2023-05-12T04:20:37;99718.19;;;10.21;100.00
7966;BME280;4028;43.272;26.932;2023-05-12T04:23:02;99718.31;;;10.30;100.00
7966;BME280;4028;43.272;26.932;2023-05-12T04:25:28;99720.88;;;10.41;100.00
7966;BME280;4028;43.272;26.932;2023-05-12T04:27:53;99706.63;;;10.33;100.00
7966;BME280;4028;43.272;26.932;2023-05-12T04:30:19;99718.44;;;10.29;100.00
7966;BME280;4028;43.272;26.932;2023-05-12T04:32:44;99715.69;;;10.19;100.00
7966;BME280;4028;43.272;26.932;2023-05-12T04:35:10;99717.75;;;10.15;100.00
7966;BME280;4028;43.272;26.932;2023-05-12T04:37:35;99719.66;;;10.25;100.00
7966;BME280;4028;43.272;26.932;2023-05-12T04:40:00;99720.50;;;10.25;100.00
7966;BME280;4028;43.272;26.932;2023-05-12T04:42:26;99724.56;;;10.18;100.00
7966;BME280;4028;43.272;26.932;2023-05-12T04:44:51;99723.88;;;10.16;100.00
7966;BME280;4028;43.272;26.932;2023-05-12T04:47:17;99725.34;;;10.09;100.00
7966;BME280;4028;43.272;26.932;2023-05-12T04:49:42;99718.72;;;10.14;100.00
7966;BME280;4028;43.272;26.932;2023-05-12T04:52:08;99720.16;;;10.19;100.00
7966;BME280;4028;43.272;26.932;2023-05-12T04:54:33;99721.22;;;10.16;100.00
7966;BME280;4028;43.272;26.932;2023-05-12T04:56:59;99725.22;;;10.10;100.00
7966;BME280;4028;43.272;26.932;2023-05-12T04:59:24;99720.16;;;10.07;100.00
7966;BME280;4028;43.272;26.932;2023-05-12T05:01:50;99727.78;;;10.01;100.00
7966;BME280;4028;43.272;26.932;2023-05-12T05:04:15;99720.06;;;10.09;100.00
7966;BME280;4028;43.272;26.932;2023-05-12T05:06:41;99721.81;;;10.20;100.00
7966;BME280;4028;43.272;26.932;2023-05-12T05:09:06;99725.44;;;10.19;100.00
7966;BME280;4028;43.272;26.932;2023-05-12T05:11:32;99723.63;;;10.19;100.00
7966;BME280;4028;43.272;26.932;2023-05-12T05:13:57;99721.53;;;10.23;100.00
7966;BME280;4028;43.272;26.932;2023-05-12T05:16:23;99715.09;;;10.15;100.00
7966;BME280;4028;43.272;26.932;2023-05-12T05:18:48;99712.06;;;10.20;100.00
7966;BME280;4028;43.272;26.932;2023-05-12T05:21:14;99724.50;;;10.40;100.00
7966;BME280;4028;43.272;26.932;2023-05-12T05:23:40;99720.38;;;10.48;100.00
7966;BME280;4028;43.272;26.932;2023-05-12T05:26:06;99723.47;;;10.53;100.00
7966;BME280;4028;43.272;26.932;2023-05-12T05:28:32;99725.94;;;10.65;100.00
7966;BME280;4028;43.272;26.932;2023-05-12T05:30:57;99720.94;;;10.72;100.00
7966;BME280;4028;43.272;26.932;2023-05-12T05:33:23;99722.63;;;10.73;100.00
7966;BME280;4028;43.272;26.932;2023-05-12T05:35:49;99729.19;;;10.79;100.00
7966;BME280;4028;43.272;26.932;2023-05-12T05:38:14;99729.19;;;10.79;100.00
7966;BME280;4028;43.272;26.932;2023-05-12T05:40:40;99727.78;;;10.96;100.00
7966;BME280;4028;43.272;26.932;2023-05-12T05:43:05;99721.84;;;11.13;100.00
7966;BME280;4028;43.272;26.932;2023-05-12T05:45:32;99734.19;;;11.33;100.00
7966;BME280;4028;43.272;26.932;2023-05-12T05:47:57;99726.53;;;11.40;100.00
7966;BME280;4028;43.272;26.932;2023-05-12T05:50:23;99731.72;;;11.51;100.00
7966;BME280;4028;43.272;26.932;2023-05-12T05:52:48;99733.44;;;11.62;100.00
7966;BME280;4028;43.272;26.932;2023-05-12T05:55:14;99732.47;;;11.63;100.00
7966;BME280;4028;43.272;26.932;2023-05-12T05:57:39;99732.59;;;11.71;100.00
7966;BME280;4028;43.272;26.932;2023-05-12T06:00:05;99737.69;;;11.84;100.00
7966;BME280;4028;43.272;26.932;2023-05-12T06:02:34;99734.09;;;12.04;100.00
7966;BME280;4028;43.272;26.932;2023-05-12T06:04:59;99737.44;;;12.26;100.00
7966;BME280;4028;43.272;26.932;2023-05-12T06:07:25;99738.94;;;12.38;100.00
7966;BME280;4028;43.272;26.932;2023-05-12T06:09:54;99733.38;;;12.51;100.00
7966;BME280;4028;43.272;26.932;2023-05-12T06:12:19;99717.88;;;12.36;100.00
7966;BME280;4028;43.272;26.932;2023-05-12T06:14:45;99736.53;;;12.73;100.00
7966;BME280;4028;43.272;26.932;2023-05-12T06:17:10;99735.44;;;13.13;100.00
7966;BME280;4028;43.272;26.932;2023-05-12T06:19:36;99730.28;;;13.49;100.00
7966;BME280;4028;43.272;26.932;2023-05-12T06:22:02;99727.56;;;13.59;100.00
7966;BME280;4028;43.272;26.932;2023-05-12T06:24:27;99734.44;;;13.79;100.00
7966;BME280;4028;43.272;26.932;2023-05-12T06:26:53;99736.59;;;13.93;100.00
7966;BME280;4028;43.272;26.932;2023-05-12T06:29:18;99732.41;;;14.09;100.00
7966;BME280;4028;43.272;26.932;2023-05-12T06:31:45;99738.94;;;14.14;100.00
7966;BME280;4028;43.272;26.932;2023-05-12T06:34:11;99733.91;;;14.11;100.00
7966;BME280;4028;43.272;26.932;2023-05-12T06:36:36;99735.75;;;14.11;100.00
7966;BME280;4028;43.272;26.932;2023-05-12T06:39:03;99733.69;;;14.22;100.00
7966;BME280;4028;43.272;26.932;2023-05-12T06:41:28;99731.25;;;14.29;100.00
7966;BME280;4028;43.272;26.932;2023-05-12T06:43:54;99736.25;;;14.32;100.00
7966;BME280;4028;43.272;26.932;2023-05-12T06:46:20;99740.81;;;14.57;100.00
7966;BME280;4028;43.272;26.932;2023-05-12T06:48:46;99739.28;;;14.73;100.00
7966;BME280;4028;43.272;26.932;2023-05-12T06:51:11;99747.22;;;14.65;100.00
7966;BME280;4028;43.272;26.932;2023-05-12T06:53:38;99739.16;;;14.56;100.00
7966;BME280;4028;43.272;26.932;2023-05-12T06:56:04;99732.91;;;14.66;100.00
7966;BME280;4028;43.272;26.932;2023-05-12T06:58:30;99741.63;;;14.76;100.00
7966;BME280;4028;43.272;26.932;2023-05-12T07:00:55;99739.81;;;14.76;100.00
7966;BME280;4028;43.272;26.932;2023-05-12T07:03:21;99740.34;;;14.80;100.00
7966;BME280;4028;43.272;26.932;2023-05-12T07:05:47;99735.78;;;14.98;100.00
7966;BME280;4028;43.272;26.932;2023-05-12T07:08:12;99735.31;;;15.03;100.00
7966;BME280;4028;43.272;26.932;2023-05-12T07:10:38;99735.47;;;15.01;100.00
7966;BME280;4028;43.272;26.932;2023-05-12T07:13:04;99743.19;;;15.13;100.00
7966;BME280;4028;43.272;26.932;2023-05-12T07:15:30;99736.47;;;15.00;100.00
7966;BME280;4028;43.272;26.932;2023-05-12T07:17:55;99740.25;;;14.90;99.06
7966;BME280;4028;43.272;26.932;2023-05-12T07:20:21;99730.25;;;14.92;100.00
7966;BME280;4028;43.272;26.932;2023-05-12T07:22:47;99744.34;;;15.10;92.78
7966;BME280;4028;43.272;26.932;2023-05-12T07:25:13;99740.63;;;15.03;88.39
7966;BME280;4028;43.272;26.932;2023-05-12T07:27:40;99739.63;;;15.04;94.48
7966;BME280;4028;43.272;26.932;2023-05-12T07:30:06;99705.09;;;14.94;95.94
7966;BME280;4028;43.272;26.932;2023-05-12T07:32:31;99741.75;;;15.26;92.45
7966;BME280;4028;43.272;26.932;2023-05-12T07:34:57;99748.59;;;15.29;93.10
7966;BME280;4028;43.272;26.932;2023-05-12T07:37:22;99748.34;;;15.48;88.23
7966;BME280;4028;43.272;26.932;2023-05-12T07:39:48;99753.56;;;15.58;86.50
7966;BME280;4028;43.272;26.932;2023-05-12T07:42:13;99752.94;;;15.64;85.14
7966;BME280;4028;43.272;26.932;2023-05-12T07:44:39;99742.97;;;15.74;76.60
7966;BME280;4028;43.272;26.932;2023-05-12T07:47:05;99748.19;;;15.92;75.47
7966;BME280;4028;43.272;26.932;2023-05-12T07:49:31;99743.03;;;15.99;72.10
7966;BME280;4028;43.272;26.932;2023-05-12T07:51:57;99741.72;;;16.03;69.95
7966;BME280;4028;43.272;26.932;2023-05-12T07:54:22;99747.72;;;16.05;71.13
7966;BME280;4028;43.272;26.932;2023-05-12T07:56:48;99743.72;;;16.09;75.05
7966;BME280;4028;43.272;26.932;2023-05-12T07:59:13;99740.56;;;16.22;71.83
7966;BME280;4028;43.272;26.932;2023-05-12T08:01:39;99730.88;;;16.13;69.40
7966;BME280;4028;43.272;26.932;2023-05-12T08:04:05;99747.41;;;16.24;67.63
7966;BME280;4028;43.272;26.932;2023-05-12T08:06:31;99738.41;;;16.33;66.03
7966;BME280;4028;43.272;26.932;2023-05-12T08:08:58;99740.41;;;16.40;64.37
7966;BME280;4028;43.272;26.932;2023-05-12T08:11:23;99742.22;;;16.47;66.19
7966;BME280;4028;43.272;26.932;2023-05-12T08:13:50;99743.25;;;16.54;61.06
7966;BME280;4028;43.272;26.932;2023-05-12T08:16:15;99739.56;;;16.39;60.24
7966;BME280;4028;43.272;26.932;2023-05-12T08:18:41;99738.91;;;16.45;61.65
7966;BME280;4028;43.272;26.932;2023-05-12T08:21:06;99730.53;;;16.56;59.93
7966;BME280;4028;43.272;26.932;2023-05-12T08:23:33;99733.91;;;16.58;59.15
7966;BME280;4028;43.272;26.932;2023-05-12T08:25:58;99741.59;;;16.53;60.27
7966;BME280;4028;43.272;26.932;2023-05-12T08:28:24;99728.53;;;16.83;61.60
7966;BME280;4028;43.272;26.932;2023-05-12T08:30:49;99730.00;;;17.02;61.58
7966;BME280;4028;43.272;26.932;2023-05-12T08:33:15;99743.44;;;17.41;60.43
7966;BME280;4028;43.272;26.932;2023-05-12T08:35:40;99737.38;;;17.47;58.55
7966;BME280;4028;43.272;26.932;2023-05-12T08:38:06;99737.47;;;17.62;57.23
7966;BME280;4028;43.272;26.932;2023-05-12T08:40:36;99725.88;;;17.38;60.31
7966;BME280;4028;43.272;26.932;2023-05-12T08:43:31;99732.75;;;17.33;57.61
7966;BME280;4028;43.272;26.932;2023-05-12T08:46:03;99730.38;;;17.46;58.76
7966;BME280;4028;43.272;26.932;2023-05-12T08:48:30;99731.84;;;17.49;57.72
7966;BME280;4028;43.272;26.932;2023-05-12T08:50:58;99736.44;;;17.32;57.17
7966;BME280;4028;43.272;26.932;2023-05-12T08:53:26;99735.09;;;17.28;57.13
7966;BME280;4028;43.272;26.932;2023-05-12T08:55:55;99730.78;;;17.19;59.84
7966;BME280;4028;43.272;26.932;2023-05-12T08:58:22;99733.63;;;17.25;58.61
7966;BME280;4028;43.272;26.932;2023-05-12T09:00:49;99727.09;;;17.20;56.76
7966;BME280;4028;43.272;26.932;2023-05-12T09:03:15;99737.97;;;17.18;57.21
7966;BME280;4028;43.272;26.932;2023-05-12T09:05:42;99731.63;;;17.19;58.03
7966;BME280;4028;43.272;26.932;2023-05-12T09:08:08;99733.63;;;17.17;58.37
7966;BME280;4028;43.272;26.932;2023-05-12T09:10:34;99722.31;;;16.99;57.26
7966;BME280;4028;43.272;26.932;2023-05-12T09:13:19;99726.03;;;16.73;58.55
7966;BME280;4028;43.272;26.932;2023-05-12T09:15:47;99729.91;;;16.79;59.35
7966;BME280;4028;43.272;26.932;2023-05-12T09:18:15;99728.03;;;16.63;58.53
7966;BME280;4028;43.272;26.932;2023-05-12T09:20:41;99722.53;;;16.64;59.37
7966;BME280;4028;43.272;26.932;2023-05-12T09:23:18;99724.22;;;16.74;59.84
7966;BME280;4028;43.272;26.932;2023-05-12T09:25:44;99724.19;;;16.66;59.65
7966;BME280;4028;43.272;26.932;2023-05-12T09:28:11;99722.03;;;16.61;59.42
7966;BME280;4028;43.272;26.932;2023-05-12T09:30:37;99712.53;;;16.50;61.03
7966;BME280;4028;43.272;26.932;2023-05-12T09:33:11;99706.16;;;16.51;59.88
7966;BME280;4028;43.272;26.932;2023-05-12T09:35:44;99717.03;;;16.42;59.60
7966;BME280;4028;43.272;26.932;2023-05-12T09:38:11;99703.03;;;16.23;60.84
7966;BME280;4028;43.272;26.932;2023-05-12T09:40:37;99706.19;;;16.35;61.54
7966;BME280;4028;43.272;26.932;2023-05-12T09:43:07;99708.50;;;16.46;60.99
7966;BME280;4028;43.272;26.932;2023-05-12T09:45:36;99714.50;;;16.56;63.11
7966;BME280;4028;43.272;26.932;2023-05-12T09:48:12;99707.69;;;16.54;60.03
7966;BME280;4028;43.272;26.932;2023-05-12T09:50:50;99711.84;;;16.64;60.94
7966;BME280;4028;43.272;26.932;2023-05-12T09:53:18;99706.31;;;16.91;59.28
7966;BME280;4028;43.272;26.932;2023-05-12T09:55:45;99710.97;;;17.05;57.90
7966;BME280;4028;43.272;26.932;2023-05-12T09:58:14;99712.44;;;17.15;56.08
7966;BME280;4028;43.272;26.932;2023-05-12T10:00:40;99695.63;;;17.30;57.66
7966;BME280;4028;43.272;26.932;2023-05-12T10:03:12;99700.09;;;17.46;55.14
7966;BME280;4028;43.272;26.932;2023-05-12T10:05:53;99703.63;;;17.46;56.36
7966;BME280;4028;43.272;26.932;2023-05-12T10:08:36;99701.56;;;17.56;56.09
7966;BME280;4028;43.272;26.932;2023-05-12T10:11:03;99707.75;;;17.57;56.73
7966;BME280;4028;43.272;26.932;2023-05-12T10:13:31;99705.91;;;17.49;56.36
7966;BME280;4028;43.272;26.932;2023-05-12T10:15:57;99705.84;;;17.74;55.61
7966;BME280;4028;43.272;26.932;2023-05-12T10:18:23;99703.41;;;17.87;52.17
7966;BME280;4028;43.272;26.932;2023-05-12T10:20:51;99680.03;;;18.41;51.12
7966;BME280;4028;43.272;26.932;2023-05-12T10:23:17;99693.75;;;18.84;51.22
7966;BME280;4028;43.272;26.932;2023-05-12T10:25:43;99694.00;;;19.34;50.26
7966;BME280;4028;43.272;26.932;2023-05-12T10:28:09;99680.97;;;19.01;50.10
7966;BME280;4028;43.272;26.932;2023-05-12T10:30:37;99701.22;;;18.74;51.61
7966;BME280;4028;43.272;26.932;2023-05-12T10:33:03;99694.34;;;18.34;51.78
7966;BME280;4028;43.272;26.932;2023-05-12T10:35:33;99695.66;;;18.38;51.43
7966;BME280;4028;43.272;26.932;2023-05-12T10:38:01;99692.75;;;18.25;52.07
7966;BME280;4028;43.272;26.932;2023-05-12T10:40:29;99664.50;;;17.99;52.95
7966;BME280;4028;43.272;26.932;2023-05-12T10:42:57;99694.50;;;18.17;53.66
7966;BME280;4028;43.272;26.932;2023-05-12T10:45:25;99685.44;;;18.18;50.72
7966;BME280;4028;43.272;26.932;2023-05-12T10:47:51;99694.16;;;18.35;49.73
7966;BME280;4028;43.272;26.932;2023-05-12T10:50:27;99692.72;;;18.48;48.52
7966;BME280;4028;43.272;26.932;2023-05-12T10:52:54;99693.84;;;18.53;48.00
7966;BME280;4028;43.272;26.932;2023-05-12T10:55:30;99685.84;;;18.68;48.38
7966;BME280;4028;43.272;26.932;2023-05-12T10:58:03;99684.66;;;18.70;47.89
7966;BME280;4028;43.272;26.932;2023-05-12T11:00:29;99682.66;;;18.50;48.17
7966;BME280;4028;43.272;26.932;2023-05-12T11:02:54;99681.22;;;18.24;47.90
7966;BME280;4028;43.272;26.932;2023-05-12T11:05:19;99686.84;;;18.06;47.27
7966;BME280;4028;43.272;26.932;2023-05-12T11:07:47;99694.28;;;17.96;47.57
7966;BME280;4028;43.272;26.932;2023-05-12T11:10:13;99681.16;;;17.86;47.40
7966;BME280;4028;43.272;26.932;2023-05-12T11:12:42;99683.84;;;17.86;46.12
7966;BME280;4028;43.272;26.932;2023-05-12T11:15:07;99689.84;;;17.88;46.23
7966;BME280;4028;43.272;26.932;2023-05-12T11:17:37;99691.88;;;18.09;46.30
7966;BME280;4028;43.272;26.932;2023-05-12T11:20:04;99692.88;;;18.08;44.11
7966;BME280;4028;43.272;26.932;2023-05-12T11:22:30;99682.56;;;18.20;44.69
7966;BME280;4028;43.272;26.932;2023-05-12T11:24:55;99674.06;;;18.16;43.80
7966;BME280;4028;43.272;26.932;2023-05-12T11:27:21;99682.75;;;18.18;44.77
7966;BME280;4028;43.272;26.932;2023-05-12T11:30:00;99680.31;;;18.09;44.34
7966;BME280;4028;43.272;26.932;2023-05-12T11:32:27;99676.41;;;17.97;45.09
7966;BME280;4028;43.272;26.932;2023-05-12T11:34:53;99676.88;;;18.00;44.60
7966;BME280;4028;43.272;26.932;2023-05-12T11:37:19;99679.97;;;17.89;44.71
7966;BME280;4028;43.272;26.932;2023-05-12T11:39:45;99680.59;;;17.91;44.46
7966;BME280;4028;43.272;26.932;2023-05-12T11:42:10;99683.66;;;17.88;44.46
7966;BME280;4028;43.272;26.932;2023-05-12T11:44:45;99680.69;;;17.83;43.54
7966;BME280;4028;43.272;26.932;2023-05-12T11:47:12;99674.22;;;17.69;44.92
7966;BME280;4028;43.272;26.932;2023-05-12T11:49:49;99673.28;;;17.85;44.18
7966;BME280;4028;43.272;26.932;2023-05-12T11:52:15;99678.06;;;17.75;43.33
7966;BME280;4028;43.272;26.932;2023-05-12T11:54:59;99682.38;;;17.76;43.77
7966;BME280;4028;43.272;26.932;2023-05-12T11:57:30;99682.56;;;17.74;44.72
7966;BME280;4028;43.272;26.932;2023-05-12T12:00:01;99682.16;;;17.85;43.74
7966;BME280;4028;43.272;26.932;2023-05-12T12:02:28;99686.69;;;17.85;43.90
7966;BME280;4028;43.272;26.932;2023-05-12T12:04:54;99692.22;;;17.83;43.51
7966;BME280;4028;43.272;26.932;2023-05-12T12:07:30;99688.03;;;17.81;43.39
7966;BME280;4028;43.272;26.932;2023-05-12T12:09:56;99673.78;;;17.88;44.49
7966;BME280;4028;43.272;26.932;2023-05-12T12:12:22;99684.25;;;17.98;44.10
7966;BME280;4028;43.272;26.932;2023-05-12T12:14:48;99685.88;;;18.07;43.92
7966;BME280;4028;43.272;26.932;2023-05-12T12:17:13;99677.25;;;17.97;43.38
7966;BME280;4028;43.272;26.932;2023-05-12T12:19:39;99679.84;;;18.05;43.25
7966;BME280;4028;43.272;26.932;2023-05-12T12:22:04;99684.56;;;18.03;43.96
7966;BME280;4028;43.272;26.932;2023-05-12T12:24:30;99684.56;;;18.03;43.35
7966;BME280;4028;43.272;26.932;2023-05-12T12:26:55;99676.22;;;17.98;44.19
7966;BME280;4028;43.272;26.932;2023-05-12T12:29:21;99679.69;;;18.07;44.43
7966;BME280;4028;43.272;26.932;2023-05-12T12:31:48;99686.34;;;17.88;43.16
7966;BME280;4028;43.272;26.932;2023-05-12T12:34:14;99695.44;;;17.71;43.54
7966;BME280;4028;43.272;26.932;2023-05-12T12:36:40;99692.09;;;17.68;43.14
7966;BME280;4028;43.272;26.932;2023-05-12T12:39:05;99687.97;;;17.66;43.14
7966;BME280;4028;43.272;26.932;2023-05-12T12:41:32;99672.50;;;17.45;44.23
7966;BME280;4028;43.272;26.932;2023-05-12T12:43:57;99686.16;;;17.58;43.18
7966;BME280;4028;43.272;26.932;2023-05-12T12:46:23;99687.81;;;17.59;43.52
7966;BME280;4028;43.272;26.932;2023-05-12T12:48:49;99675.22;;;17.68;43.11
7966;BME280;4028;43.272;26.932;2023-05-12T12:51:14;99679.03;;;17.82;43.27
7966;BME280;4028;43.272;26.932;2023-05-12T12:53:40;99674.09;;;17.93;43.47
7966;BME280;4028;43.272;26.932;2023-05-12T12:56:07;99666.41;;;18.13;43.31
7966;BME280;4028;43.272;26.932;2023-05-12T12:58:33;99669.44;;;18.10;42.57
7966;BME280;4028;43.272;26.932;2023-05-12T13:00:58;99670.09;;;18.12;42.59
7966;BME280;4028;43.272;26.932;2023-05-12T13:03:24;99648.28;;;18.15;42.62
7966;BME280;4028;43.272;26.932;2023-05-12T13:05:50;99669.84;;;17.99;42.78